General Aviation Weather

Text Reports

Enter one or more of the following location identifiers separated by a space:

Zip Code, Four-Character ICAO or Three-Character IATA airport codes.

METAR - Aviation Routine Weather Report
KJZI - Charleston, South Carolina
Updated at 5:55 AM GMT on August 31, 2014 (1:55 AM EDT):
METAR KJZI 310555Z AUTO 00000KT 10SM SCT015 SCT022 26/25 A3015 RMK A02 P000
TAF - Terminal Area Forecast
KJZI - Charleston, South Carolina
Updated at 5:55 AM GMT on August 31, 2014 (1:55 AM EDT):
No TAF is currently available for this location.
Decoded:
No decoded TAF is available.
PIREP - Pilot Weather Report
KJZI - Charleston, South Carolina
Updated at 5:55 AM GMT on August 31, 2014 (1:55 AM EDT):
No PIREP is currently available for this location.
AIRMET - Airmens Meteorological Information
KJZI - Charleston, South Carolina
Updated at 5:55 AM GMT on August 31, 2014 (1:55 AM EDT):
No AIRMET is currently available for this location.
SIGMET - Significant Meteorological Information
KJZI - Charleston, South Carolina
Updated at 5:55 AM GMT on August 31, 2014 (1:55 AM EDT):
No SIGMET is currently available for this location.
NOTAM - Notice to Airmen
KJZI - Charleston, South Carolina
Updated at 5:55 AM GMT on August 31, 2014 (1:55 AM EDT):
No NOTAM is currently available for this location.
Forecast Area
KJZI - Charleston, South Carolina
Updated at 5:55 AM GMT on August 31, 2014 (1:55 AM EDT):
No NOTAM is currently available for this location.
Aviation Weather Maps